createdAt,value
2022-09-24T00:00:11.880Z,4.87
2022-09-24T00:02:39.976Z,4.83
2022-09-24T00:05:08.697Z,4.77
2022-09-24T00:07:38.041Z,5.20
2022-09-24T00:10:06.937Z,5.20
2022-09-24T00:12:34.929Z,5.13
2022-09-24T00:15:03.504Z,5.17
2022-09-24T00:17:31.590Z,5.00
2022-09-24T00:19:59.623Z,5.37
2022-09-24T00:22:27.591Z,5.63
2022-09-24T00:25:14.344Z,5.40
2022-09-24T00:27:42.371Z,5.43
2022-09-24T00:30:11.197Z,6.07
2022-09-24T00:32:39.131Z,6.00
2022-09-24T00:35:07.889Z,6.50
2022-09-24T00:37:35.913Z,5.70
2022-09-24T00:40:06.240Z,5.40
2022-09-24T00:42:34.381Z,5.00
2022-09-24T00:45:05.331Z,5.03
2022-09-24T00:47:37.179Z,4.60
2022-09-24T00:50:11.722Z,5.30
2022-09-24T00:52:44.757Z,5.03
2022-09-24T00:55:15.442Z,5.30
2022-09-24T00:57:44.646Z,5.60
2022-09-24T01:00:13.991Z,5.10
2022-09-24T01:02:46.382Z,5.10
2022-09-24T01:05:14.817Z,5.50
2022-09-24T01:07:46.601Z,4.97
2022-09-24T01:10:37.304Z,5.30
2022-09-24T01:13:15.012Z,5.70
2022-09-24T01:15:50.180Z,5.50
2022-09-24T01:18:26.328Z,6.23
2022-09-24T01:24:04.873Z,6.20
2022-09-24T01:27:05.816Z,5.40
2022-09-24T01:29:43.775Z,6.37
2022-09-24T01:32:20.242Z,5.97
2022-09-24T01:34:53.554Z,5.10
2022-09-24T01:37:25.187Z,5.17
2022-09-24T01:39:56.205Z,4.47
2022-09-24T01:42:27.134Z,5.03
2022-09-24T01:44:58.329Z,4.77
2022-09-24T01:47:35.008Z,4.90
2022-09-24T01:50:05.832Z,4.50
2022-09-24T01:52:40.821Z,5.10
2022-09-24T01:55:12.296Z,5.40
2022-09-24T01:57:44.142Z,6.00
2022-09-24T02:00:16.351Z,5.80
2022-09-24T02:02:47.633Z,5.30
2022-09-24T02:05:24.977Z,5.80
2022-09-24T02:07:59.563Z,6.50
2022-09-24T02:10:33.745Z,6.13
2022-09-24T02:13:06.630Z,5.77
2022-09-24T02:15:40.873Z,6.30
2022-09-24T02:18:11.629Z,5.70
2022-09-24T02:20:42.590Z,6.47
2022-09-24T02:23:12.155Z,6.90
2022-09-24T02:25:44.174Z,7.23
2022-09-24T02:28:12.275Z,6.77
2022-09-24T02:30:47.103Z,6.37
2022-09-24T02:33:34.391Z,6.73
2022-09-24T02:36:03.417Z,5.80
2022-09-24T02:38:31.456Z,6.40
2022-09-24T02:40:59.774Z,5.80
2022-09-24T02:43:28.064Z,6.27
2022-09-24T02:45:57.385Z,5.77
2022-09-24T02:48:25.364Z,6.13
2022-09-24T02:50:53.887Z,6.00
2022-09-24T02:53:21.873Z,6.00
2022-09-24T02:55:49.929Z,6.20
2022-09-24T02:58:17.997Z,6.60
2022-09-24T03:00:45.981Z,6.17
2022-09-24T03:03:15.457Z,6.10
2022-09-24T03:05:43.609Z,6.13
2022-09-24T03:08:11.763Z,6.03
2022-09-24T03:10:39.735Z,6.00
2022-09-24T03:13:07.847Z,5.47
2022-09-24T03:15:35.841Z,6.40
2022-09-24T03:18:04.268Z,6.57
2022-09-24T03:20:33.625Z,6.20
2022-09-24T03:23:01.673Z,6.67
2022-09-24T03:25:29.721Z,6.47
2022-09-24T03:27:57.714Z,6.50
2022-09-24T03:30:57.856Z,6.27
2022-09-24T03:33:25.920Z,7.40
2022-09-24T03:35:58.278Z,6.67
2022-09-24T03:38:26.416Z,7.13
2022-09-24T03:40:54.478Z,7.43
2022-09-24T03:43:22.607Z,6.90
2022-09-24T03:45:50.553Z,7.03
2022-09-24T03:48:18.645Z,6.67
2022-09-24T03:50:48.201Z,6.37
2022-09-24T03:53:18.422Z,6.37
2022-09-24T03:55:48.312Z,6.90
2022-09-24T03:58:17.073Z,6.70
2022-09-24T04:00:45.239Z,6.53
2022-09-24T04:03:13.234Z,6.77
2022-09-24T04:05:41.271Z,7.07
2022-09-24T04:08:09.266Z,7.10
2022-09-24T04:10:38.612Z,7.00
2022-09-24T04:13:06.602Z,7.43
2022-09-24T04:15:34.574Z,7.80
2022-09-24T04:18:02.541Z,7.67
2022-09-24T04:20:31.458Z,7.33
2022-09-24T04:23:00.080Z,7.53
2022-09-24T04:25:30.622Z,8.00
2022-09-24T04:28:01.938Z,7.80
2022-09-24T04:30:30.981Z,7.93
2022-09-24T04:33:00.843Z,7.67
2022-09-24T04:35:30.896Z,7.73
2022-09-24T04:38:00.359Z,6.73
2022-09-24T04:40:28.911Z,6.97
2022-09-24T04:42:56.964Z,6.33
2022-09-24T04:45:26.933Z,7.13
2022-09-24T04:47:57.519Z,7.07
2022-09-24T04:50:26.806Z,7.30
2022-09-24T04:52:55.115Z,7.40
2022-09-24T04:55:23.238Z,7.90
2022-09-24T04:57:51.393Z,7.40
2022-09-24T05:00:21.954Z,8.20
2022-09-24T05:02:57.542Z,7.83
2022-09-24T05:05:25.914Z,7.77
2022-09-24T05:07:56.692Z,8.70
2022-09-24T05:10:25.137Z,7.27
2022-09-24T05:12:53.168Z,8.37
2022-09-24T05:15:21.264Z,8.27
2022-09-24T05:17:49.564Z,7.53
2022-09-24T05:20:19.551Z,7.03
2022-09-24T05:22:49.297Z,7.43
2022-09-24T05:25:19.426Z,8.33
2022-09-24T05:27:46.892Z,9.37
2022-09-24T05:30:16.114Z,16.77
2022-09-24T05:32:44.292Z,13.80
2022-09-24T05:35:13.757Z,14.43
2022-09-24T05:37:43.158Z,12.50
2022-09-24T05:40:28.998Z,10.90
2022-09-24T05:43:02.354Z,10.20
2022-09-24T05:45:30.553Z,55.10
2022-09-24T05:48:00.063Z,76.33
2022-09-24T05:50:28.564Z,46.40
2022-09-24T05:52:57.907Z,36.57
2022-09-24T05:55:30.000Z,30.20
2022-09-24T05:58:04.328Z,24.07
2022-09-24T06:00:32.558Z,18.90
2022-09-24T06:03:08.967Z,16.53
2022-09-24T06:05:37.023Z,15.37
2022-09-24T06:08:08.698Z,11.00
2022-09-24T06:10:37.463Z,12.43
2022-09-24T06:13:05.524Z,13.53
2022-09-24T06:15:35.001Z,13.03
2022-09-24T06:18:02.939Z,12.40
2022-09-24T06:20:30.983Z,11.80
2022-09-24T06:22:59.116Z,11.40
2022-09-24T06:25:28.573Z,10.80
2022-09-24T06:28:00.288Z,10.43
2022-09-24T06:30:29.427Z,9.50
2022-09-24T06:33:04.481Z,9.97
2022-09-24T06:35:32.842Z,9.93
2022-09-24T06:38:00.874Z,10.27
2022-09-24T06:40:35.559Z,9.57
2022-09-24T06:43:05.184Z,11.53
2022-09-24T06:45:33.420Z,10.00
2022-09-24T06:48:03.280Z,11.40
2022-09-24T06:50:34.317Z,10.23
2022-09-24T06:53:05.430Z,9.97
2022-09-24T06:55:35.403Z,9.77
2022-09-24T06:58:05.327Z,9.37
2022-09-24T07:00:33.850Z,9.53
2022-09-24T07:03:02.282Z,9.77
2022-09-24T07:05:30.345Z,9.60
2022-09-24T07:07:58.698Z,10.00
2022-09-24T07:10:27.526Z,9.70
2022-09-24T07:12:57.151Z,9.97
2022-09-24T07:15:25.852Z,18.40
2022-09-24T07:17:56.711Z,16.10
2022-09-24T07:20:28.115Z,12.30
2022-09-24T07:22:57.064Z,13.20
2022-09-24T07:25:25.545Z,12.23
2022-09-24T07:27:54.120Z,12.10
2022-09-24T07:30:23.754Z,10.57
2022-09-24T07:32:56.304Z,10.40
2022-09-24T07:35:25.039Z,9.83
2022-09-24T07:38:00.953Z,9.83
2022-09-24T07:40:30.864Z,8.57
2022-09-24T07:43:00.192Z,8.00
2022-09-24T07:45:31.634Z,6.70
2022-09-24T07:48:00.889Z,6.80
2022-09-24T07:50:30.622Z,7.10
2022-09-24T07:52:58.890Z,5.83
2022-09-24T07:55:27.714Z,6.93
2022-09-24T07:57:57.510Z,6.47
2022-09-24T08:00:26.521Z,7.67
2022-09-24T08:02:56.661Z,8.10
2022-09-24T08:05:25.487Z,7.40
2022-09-24T08:07:54.470Z,7.77
2022-09-24T08:10:23.086Z,9.97
2022-09-24T08:12:51.879Z,6.87
2022-09-24T08:15:22.913Z,7.30
2022-09-24T08:17:51.856Z,9.17
2022-09-24T08:20:23.677Z,10.10
2022-09-24T08:22:52.024Z,8.27
2022-09-24T08:25:20.222Z,6.90
2022-09-24T08:27:48.886Z,6.63
2022-09-24T08:30:17.531Z,7.87
2022-09-24T08:32:47.928Z,7.07
2022-09-24T08:35:16.702Z,8.23
2022-09-24T08:37:46.958Z,8.93
2022-09-24T08:40:21.428Z,7.80
2022-09-24T08:42:56.438Z,7.57
2022-09-24T08:45:42.305Z,7.90
2022-09-24T08:48:20.296Z,7.73
2022-09-24T08:50:58.452Z,8.40
2022-09-24T08:53:32.647Z,7.57
2022-09-24T08:56:01.771Z,8.80
2022-09-24T08:58:44.164Z,8.57
2022-09-24T09:01:23.899Z,7.47
2022-09-24T09:03:58.074Z,7.27
2022-09-24T09:06:47.460Z,7.07
2022-09-24T09:09:20.277Z,7.70
2022-09-24T09:11:52.003Z,6.73
2022-09-24T09:14:29.260Z,6.40
2022-09-24T09:17:02.558Z,6.80
2022-09-24T09:19:35.579Z,7.23
2022-09-24T09:22:12.532Z,6.67
2022-09-24T09:24:49.094Z,6.73
2022-09-24T09:27:18.724Z,7.17
2022-09-24T09:29:49.997Z,6.20
2022-09-24T09:32:29.649Z,7.17
2022-09-24T09:35:05.135Z,7.23
2022-09-24T09:37:42.396Z,6.70
2022-09-24T09:40:31.839Z,8.50
2022-09-24T09:43:03.389Z,7.37
2022-09-24T09:45:38.037Z,7.20
2022-09-24T09:48:12.864Z,7.47
2022-09-24T09:50:45.715Z,6.57
2022-09-24T09:53:22.157Z,7.20
2022-09-24T09:55:57.059Z,6.13
2022-09-24T09:58:27.536Z,6.60
2022-09-24T10:01:07.118Z,6.83
2022-09-24T10:03:47.725Z,6.43
2022-09-24T10:06:25.240Z,5.60
2022-09-24T10:08:54.109Z,8.87
2022-09-24T10:11:24.047Z,8.67
2022-09-24T10:14:03.394Z,7.60
2022-09-24T10:16:32.212Z,5.97
2022-09-24T10:19:01.646Z,4.90
2022-09-24T10:21:34.643Z,3.80
2022-09-24T10:24:04.738Z,4.27
2022-09-24T10:26:44.744Z,4.43
2022-09-24T10:29:33.520Z,5.53
2022-09-24T10:32:02.867Z,6.80
2022-09-24T10:34:31.578Z,7.87
2022-09-24T10:37:06.062Z,7.47
2022-09-24T10:39:37.068Z,6.97
2022-09-24T10:42:08.053Z,7.40
2022-09-24T10:44:38.589Z,5.90
2022-09-24T10:47:19.413Z,4.90
2022-09-24T10:50:07.603Z,4.57
2022-09-24T10:52:47.365Z,4.87
2022-09-24T10:55:39.227Z,4.83
2022-09-24T10:58:29.056Z,4.40
2022-09-24T11:01:10.058Z,4.53
2022-09-24T11:03:55.567Z,4.33
2022-09-24T11:06:43.047Z,4.80
2022-09-24T11:09:25.492Z,5.23
2022-09-24T11:12:08.051Z,4.53
2022-09-24T11:14:54.717Z,5.27
2022-09-24T11:17:34.551Z,4.77
2022-09-24T11:20:24.330Z,5.60
2022-09-24T11:23:12.634Z,5.27
2022-09-24T11:25:49.138Z,5.10
2022-09-24T11:28:36.615Z,4.87
2022-09-24T11:31:13.561Z,4.80
2022-09-24T11:34:05.821Z,5.70
2022-09-24T11:36:56.564Z,5.60
2022-09-24T11:39:39.047Z,9.63
2022-09-24T11:42:20.739Z,7.20
2022-09-24T11:45:15.815Z,6.03
2022-09-24T11:48:06.772Z,6.00
2022-09-24T11:50:50.164Z,5.33
2022-09-24T11:53:27.281Z,5.13
2022-09-24T11:55:59.759Z,5.80
2022-09-24T11:58:33.362Z,6.47
2022-09-24T12:01:10.540Z,5.47
2022-09-24T12:03:48.270Z,6.03
2022-09-24T12:06:21.262Z,5.77
2022-09-24T12:08:58.315Z,6.80
2022-09-24T12:11:31.757Z,6.03
2022-09-24T12:14:04.839Z,5.80
2022-09-24T12:16:38.610Z,5.80
2022-09-24T12:19:16.609Z,5.97
2022-09-24T12:21:47.903Z,5.60
2022-09-24T12:24:23.483Z,5.40
2022-09-24T12:26:57.814Z,5.67
2022-09-24T12:30:02.552Z,4.73
2022-09-24T12:32:56.188Z,4.70
2022-09-24T12:35:40.256Z,4.40
2022-09-24T12:38:14.799Z,3.60
2022-09-24T12:41:09.165Z,4.03
2022-09-24T12:43:44.517Z,3.40
2022-09-24T12:46:18.242Z,4.30
2022-09-24T12:48:48.664Z,4.07
2022-09-24T12:51:22.402Z,3.80
2022-09-24T12:54:00.243Z,4.40
2022-09-24T12:56:32.011Z,5.00
2022-09-24T12:59:00.603Z,3.97
2022-09-24T13:01:32.234Z,3.80
2022-09-24T13:04:24.815Z,3.37
2022-09-24T13:06:54.970Z,3.57
2022-09-24T13:09:35.449Z,3.17
2022-09-24T13:12:08.004Z,3.33
2022-09-24T13:14:36.748Z,3.33
2022-09-24T13:17:08.101Z,3.13
2022-09-24T13:19:41.070Z,3.63
2022-09-24T13:22:24.108Z,3.70
2022-09-24T13:24:54.760Z,3.97
2022-09-24T13:27:37.648Z,3.53
2022-09-24T13:30:17.779Z,3.13
2022-09-24T13:32:57.148Z,3.83
2022-09-24T13:35:29.356Z,3.93
2022-09-24T13:38:06.812Z,4.07
2022-09-24T13:40:41.084Z,3.27
2022-09-24T13:43:17.131Z,3.30
2022-09-24T13:45:46.817Z,6.50
2022-09-24T13:48:24.174Z,4.00
2022-09-24T13:50:54.642Z,3.53
2022-09-24T13:53:31.706Z,2.97
2022-09-24T13:56:04.204Z,2.80
2022-09-24T13:58:34.201Z,3.23
2022-09-24T14:01:08.731Z,2.50
2022-09-24T14:03:40.949Z,2.97
2022-09-24T14:06:13.661Z,2.67
2022-09-24T14:08:46.304Z,2.73
2022-09-24T14:11:17.653Z,2.53
2022-09-24T14:13:46.665Z,3.63
2022-09-24T14:16:19.934Z,4.40
2022-09-24T14:18:49.366Z,3.40
2022-09-24T14:21:23.752Z,3.00
2022-09-24T14:23:58.974Z,3.17
2022-09-24T14:26:32.053Z,3.17
2022-09-24T14:29:02.898Z,2.40
2022-09-24T14:31:31.694Z,2.60
2022-09-24T14:34:03.152Z,2.90
2022-09-24T14:36:31.469Z,2.83
2022-09-24T14:39:05.040Z,3.13
2022-09-24T14:41:35.610Z,2.97
2022-09-24T14:44:07.850Z,3.00
2022-09-24T14:46:39.263Z,2.90
2022-09-24T14:49:18.237Z,2.70
2022-09-24T14:51:54.655Z,3.10
2022-09-24T14:54:30.870Z,3.03
2022-09-24T14:57:11.319Z,8.30
2022-09-24T14:59:41.836Z,6.00
2022-09-24T15:02:19.681Z,4.90
2022-09-24T15:04:50.340Z,3.23
2022-09-24T15:07:22.591Z,4.00
2022-09-24T15:09:54.171Z,3.80
2022-09-24T15:12:30.804Z,3.90
2022-09-24T15:15:01.183Z,4.10
2022-09-24T15:17:32.422Z,3.93
2022-09-24T15:20:01.634Z,3.90
2022-09-24T15:22:31.464Z,4.53
2022-09-24T15:25:02.510Z,4.00
2022-09-24T15:27:32.700Z,3.90
2022-09-24T15:30:02.686Z,3.87
2022-09-24T15:32:33.844Z,4.03
2022-09-24T15:35:07.777Z,4.43
2022-09-24T15:37:38.960Z,4.33
2022-09-24T15:40:16.918Z,3.90
2022-09-24T15:42:45.123Z,3.43
2022-09-24T15:45:18.375Z,4.10
2022-09-24T15:47:46.985Z,4.47
2022-09-24T15:50:15.509Z,4.10
2022-09-24T15:52:48.122Z,4.30
2022-09-24T15:55:20.381Z,3.40
2022-09-24T15:57:49.026Z,3.77
2022-09-24T16:00:19.436Z,3.83
2022-09-24T16:02:50.315Z,3.27
2022-09-24T16:05:19.776Z,3.60
2022-09-24T16:07:48.263Z,3.70
2022-09-24T16:10:18.560Z,3.70
2022-09-24T16:12:46.823Z,3.60
2022-09-24T16:15:17.242Z,3.60
2022-09-24T16:17:45.526Z,4.00
2022-09-24T16:20:13.873Z,4.27
2022-09-24T16:22:42.079Z,4.93
2022-09-24T16:25:10.808Z,4.30
2022-09-24T16:27:41.107Z,4.00
2022-09-24T16:30:10.077Z,3.93
2022-09-24T16:32:38.452Z,4.27
2022-09-24T16:35:07.861Z,13.40
2022-09-24T16:37:36.247Z,5.50
2022-09-24T16:40:05.207Z,6.30
2022-09-24T16:42:34.828Z,7.00
2022-09-24T16:45:04.934Z,7.30
2022-09-24T16:47:33.381Z,6.70
2022-09-24T16:50:01.653Z,6.27
2022-09-24T16:52:31.572Z,5.73
2022-09-24T16:54:59.719Z,5.93
2022-09-24T16:57:28.047Z,5.87
2022-09-24T16:59:56.299Z,6.00
2022-09-24T17:02:26.102Z,5.90
2022-09-24T17:04:59.413Z,6.30
2022-09-24T17:07:31.277Z,7.10
2022-09-24T17:10:13.651Z,7.10
2022-09-24T17:12:43.918Z,9.50
2022-09-24T17:15:13.008Z,9.40
2022-09-24T17:17:49.564Z,8.87
2022-09-24T17:20:19.439Z,9.80
2022-09-24T17:22:48.609Z,10.60
2022-09-24T17:25:17.176Z,8.80
2022-09-24T17:27:45.592Z,8.63
2022-09-24T17:30:14.830Z,7.77
2022-09-24T17:32:44.791Z,6.67
2022-09-24T17:35:13.519Z,7.17
2022-09-24T17:37:41.860Z,8.10
2022-09-24T17:40:11.207Z,12.10
2022-09-24T17:42:45.895Z,10.60
2022-09-24T17:45:14.371Z,7.33
2022-09-24T17:48:00.577Z,6.13
2022-09-24T17:50:30.030Z,5.70
2022-09-24T17:52:59.345Z,5.37
2022-09-24T17:55:27.985Z,5.70
2022-09-24T17:57:56.141Z,6.83
2022-09-24T18:00:24.386Z,6.63
2022-09-24T18:02:56.656Z,6.33
2022-09-24T18:05:25.580Z,6.47
2022-09-24T18:07:54.090Z,6.50
2022-09-24T18:10:22.392Z,7.40
2022-09-24T18:12:50.791Z,7.73
2022-09-24T18:15:19.039Z,7.87
2022-09-24T18:17:47.345Z,7.83
2022-09-24T18:20:17.276Z,8.37
2022-09-24T18:22:45.549Z,6.77
2022-09-24T18:25:14.154Z,6.50
2022-09-24T18:27:45.444Z,6.70
2022-09-24T18:30:15.650Z,6.73
2022-09-24T18:32:46.815Z,7.20
2022-09-24T18:35:16.639Z,7.10
2022-09-24T18:37:44.858Z,8.10
2022-09-24T18:40:13.458Z,8.73
2022-09-24T18:42:41.959Z,21.27
2022-09-24T18:45:11.085Z,24.40
2022-09-24T18:47:39.514Z,23.43
2022-09-24T18:50:09.113Z,27.87
2022-09-24T18:52:38.923Z,20.97
2022-09-24T18:55:08.581Z,14.07
2022-09-24T18:57:37.895Z,12.27
2022-09-24T19:00:27.438Z,11.57
2022-09-24T19:02:55.970Z,12.23
2022-09-24T19:05:24.403Z,12.57
2022-09-24T19:07:54.339Z,13.67
2022-09-24T19:10:22.640Z,17.03
2022-09-24T19:12:53.471Z,13.93
2022-09-24T19:15:22.058Z,24.60
2022-09-24T19:17:53.166Z,12.77
2022-09-24T19:20:21.833Z,22.43
2022-09-24T19:22:59.717Z,25.77
2022-09-24T19:25:33.226Z,26.50
2022-09-24T19:28:03.645Z,16.63
2022-09-24T19:30:32.055Z,12.83
2022-09-24T19:33:00.478Z,14.50
2022-09-24T19:35:29.197Z,10.33
2022-09-24T19:37:57.452Z,9.67
2022-09-24T19:40:25.874Z,7.63
2022-09-24T19:42:56.210Z,8.77
2022-09-24T19:45:25.674Z,10.20
2022-09-24T19:47:54.231Z,9.77
2022-09-24T19:50:22.690Z,8.30
2022-09-24T19:52:53.174Z,8.77
2022-09-24T19:55:26.181Z,9.97
2022-09-24T19:57:58.527Z,10.07
2022-09-24T20:00:26.702Z,8.67
2022-09-24T20:02:55.060Z,11.77
2022-09-24T20:05:23.169Z,8.93
2022-09-24T20:07:51.327Z,8.50
2022-09-24T20:10:19.439Z,8.70
2022-09-24T20:12:51.826Z,8.30
2022-09-24T20:15:21.802Z,9.23
2022-09-24T20:17:49.941Z,8.50
2022-09-24T20:20:18.239Z,8.70
2022-09-24T20:22:46.320Z,17.20
2022-09-24T20:25:14.354Z,9.43
2022-09-24T20:27:53.360Z,15.90
2022-09-24T20:30:23.863Z,11.07
2022-09-24T20:32:52.118Z,27.27
2022-09-24T20:35:21.368Z,57.23
2022-09-24T20:37:49.505Z,48.20
2022-09-24T20:40:17.784Z,47.47
2022-09-24T20:42:46.101Z,49.57
2022-09-24T20:45:14.285Z,41.07
2022-09-24T20:47:43.927Z,38.00
2022-09-24T20:50:12.152Z,38.70
2022-09-24T20:52:40.321Z,35.53
2022-09-24T20:55:09.865Z,28.80
2022-09-24T20:57:38.124Z,19.70
2022-09-24T21:00:07.944Z,22.33
2022-09-24T21:02:41.165Z,17.17
2022-09-24T21:05:11.435Z,16.27
2022-09-24T21:07:42.881Z,14.73
2022-09-24T21:10:12.943Z,20.17
2022-09-24T21:12:41.217Z,20.27
2022-09-24T21:15:11.384Z,17.57
2022-09-24T21:17:39.520Z,19.57
2022-09-24T21:20:10.210Z,24.53
2022-09-24T21:22:39.887Z,23.60
2022-09-24T21:25:08.640Z,22.77
2022-09-24T21:27:37.036Z,25.47
2022-09-24T21:30:05.894Z,23.60
2022-09-24T21:32:38.763Z,22.90
2022-09-24T21:35:07.951Z,21.87
2022-09-24T21:37:36.129Z,20.60
2022-09-24T21:40:06.146Z,20.03
2022-09-24T21:42:34.424Z,16.30
2022-09-24T21:45:02.571Z,13.37
2022-09-24T21:47:30.607Z,13.70
2022-09-24T21:49:59.256Z,18.10
2022-09-24T21:52:31.022Z,24.00
2022-09-24T21:54:59.071Z,25.87
2022-09-24T21:57:28.508Z,25.33
2022-09-24T22:00:04.428Z,23.73
2022-09-24T22:02:33.487Z,22.83
2022-09-24T22:05:01.615Z,21.03
2022-09-24T22:07:29.692Z,22.53
2022-09-24T22:09:57.885Z,22.30
2022-09-24T22:12:26.013Z,20.53
2022-09-24T22:14:55.460Z,18.90
2022-09-24T22:17:23.489Z,17.30
2022-09-24T22:19:51.977Z,17.27
2022-09-24T22:22:21.355Z,19.00
2022-09-24T22:24:49.860Z,17.23
2022-09-24T22:27:18.298Z,15.87
2022-09-24T22:29:47.037Z,16.93
2022-09-24T22:32:16.412Z,14.93
2022-09-24T22:35:01.611Z,14.50
2022-09-24T22:37:31.098Z,13.13
2022-09-24T22:39:59.136Z,13.73
2022-09-24T22:42:27.253Z,14.20
2022-09-24T22:44:58.634Z,14.93
2022-09-24T22:47:28.075Z,15.60
2022-09-24T22:49:56.202Z,14.70
2022-09-24T22:52:24.293Z,15.40
2022-09-24T22:54:52.397Z,15.10
2022-09-24T22:57:20.533Z,15.60
2022-09-24T22:59:48.675Z,16.43
2022-09-24T23:02:16.695Z,15.30
2022-09-24T23:04:46.223Z,16.50
2022-09-24T23:07:16.445Z,15.73
2022-09-24T23:09:44.644Z,16.67
2022-09-24T23:12:12.635Z,16.10
2022-09-24T23:14:41.396Z,16.90
2022-09-24T23:17:09.481Z,16.53
2022-09-24T23:19:49.483Z,17.53
2022-09-24T23:22:19.500Z,16.63
2022-09-24T23:24:49.317Z,16.80
2022-09-24T23:27:20.288Z,17.53
2022-09-24T23:29:48.849Z,16.97
2022-09-24T23:32:17.296Z,17.70
2022-09-24T23:34:46.323Z,17.37
2022-09-24T23:37:14.415Z,16.97
2022-09-24T23:39:43.816Z,17.30
2022-09-24T23:42:11.882Z,18.07
2022-09-24T23:44:39.923Z,16.77
2022-09-24T23:47:07.986Z,15.87
2022-09-24T23:49:36.001Z,16.97
2022-09-24T23:52:04.099Z,17.77
2022-09-24T23:54:32.178Z,16.40
2022-09-24T23:57:02.208Z,18.50
2022-09-24T23:59:30.304Z,17.37
